createdAt,value
2023-05-09T00:02:30.926Z,64.80
2023-05-09T00:05:05.473Z,64.77
2023-05-09T00:07:37.215Z,64.75
2023-05-09T00:10:09.292Z,65.23
2023-05-09T00:12:41.983Z,65.05
2023-05-09T00:15:13.854Z,65.51
2023-05-09T00:17:46.016Z,65.76
2023-05-09T00:20:17.778Z,65.98
2023-05-09T00:22:52.468Z,66.05
2023-05-09T00:25:24.091Z,65.10
2023-05-09T00:27:55.817Z,65.12
2023-05-09T00:30:27.346Z,64.69
2023-05-09T00:33:01.427Z,62.84
2023-05-09T00:35:33.105Z,63.24
2023-05-09T00:38:04.737Z,63.53
2023-05-09T00:40:36.330Z,63.90
2023-05-09T00:43:09.984Z,64.06
2023-05-09T00:45:41.909Z,64.19
2023-05-09T00:48:15.780Z,63.39
2023-05-09T00:50:52.687Z,62.69
2023-05-09T00:53:25.421Z,62.54
2023-05-09T00:55:58.057Z,61.82
2023-05-09T00:58:30.079Z,61.41
2023-05-09T01:01:03.804Z,61.63
2023-05-09T01:03:36.531Z,62.03
2023-05-09T01:06:30.002Z,62.69
2023-05-09T01:09:52.919Z,62.58
2023-05-09T01:13:14.539Z,62.94
2023-05-09T01:16:08.736Z,62.53
2023-05-09T01:18:47.165Z,61.59
2023-05-09T01:21:28.140Z,62.47
2023-05-09T01:24:26.361Z,62.48
2023-05-09T01:27:21.005Z,62.49
2023-05-09T01:30:00.193Z,62.94
2023-05-09T01:32:36.446Z,62.42
2023-05-09T01:35:09.804Z,61.91
2023-05-09T01:37:44.680Z,61.93
2023-05-09T01:40:21.489Z,62.60
2023-05-09T01:43:05.806Z,62.12
2023-05-09T01:45:41.429Z,62.15
2023-05-09T01:48:14.534Z,61.62
2023-05-09T01:50:47.692Z,61.80
2023-05-09T01:53:20.077Z,61.88
2023-05-09T01:55:55.461Z,62.26
2023-05-09T01:58:28.036Z,62.21
2023-05-09T02:01:01.028Z,61.13
2023-05-09T02:03:38.111Z,60.45
2023-05-09T02:06:11.025Z,60.32
2023-05-09T02:08:43.585Z,60.55
2023-05-09T02:11:15.592Z,60.17
2023-05-09T02:13:49.432Z,60.24
2023-05-09T02:16:21.311Z,60.34
2023-05-09T02:18:52.851Z,61.08
2023-05-09T02:21:25.888Z,60.47
2023-05-09T02:23:58.800Z,60.24
2023-05-09T02:26:31.140Z,60.16
2023-05-09T02:29:05.711Z,60.45
2023-05-09T02:31:43.166Z,60.01
2023-05-09T02:34:16.597Z,61.39
2023-05-09T02:36:48.507Z,61.78
2023-05-09T02:39:21.282Z,61.56
2023-05-09T02:41:54.209Z,61.27
2023-05-09T02:44:25.846Z,61.40
2023-05-09T02:47:00.029Z,61.75
2023-05-09T02:49:32.834Z,61.13
2023-05-09T02:52:04.991Z,60.35
2023-05-09T02:54:37.228Z,59.76
2023-05-09T02:57:08.812Z,59.93
2023-05-09T02:59:40.493Z,60.25
2023-05-09T03:02:16.450Z,60.05
2023-05-09T03:04:48.230Z,60.15
2023-05-09T03:07:19.975Z,59.92
2023-05-09T03:09:51.754Z,60.87
2023-05-09T03:12:26.377Z,61.67
2023-05-09T03:14:58.262Z,62.64
2023-05-09T03:17:29.886Z,62.25
2023-05-09T03:20:04.232Z,61.01
2023-05-09T03:22:36.744Z,60.93
2023-05-09T03:25:08.546Z,60.39
2023-05-09T03:27:43.308Z,61.14
2023-05-09T03:30:15.283Z,61.33
2023-05-09T03:32:47.040Z,61.83
2023-05-09T03:35:18.834Z,61.06
2023-05-09T03:37:50.464Z,60.74
2023-05-09T03:40:22.048Z,60.17
2023-05-09T03:42:56.413Z,61.12
2023-05-09T03:45:28.000Z,60.81
2023-05-09T03:47:59.693Z,60.27
2023-05-09T03:50:31.300Z,60.28
2023-05-09T03:53:03.857Z,60.41
2023-05-09T03:55:35.525Z,60.29
2023-05-09T03:58:07.337Z,59.88
2023-05-09T04:00:39.100Z,59.96
2023-05-09T04:03:10.926Z,60.03
2023-05-09T04:05:42.654Z,59.93
2023-05-09T04:08:17.079Z,59.52
2023-05-09T04:10:50.592Z,60.44
2023-05-09T04:13:22.191Z,59.76
2023-05-09T04:15:56.143Z,59.76
2023-05-09T04:18:27.772Z,59.43
2023-05-09T04:20:59.376Z,59.22
2023-05-09T04:23:31.072Z,58.82
2023-05-09T04:26:02.703Z,59.20
2023-05-09T04:28:34.926Z,59.40
2023-05-09T04:31:06.659Z,59.65
2023-05-09T04:33:39.252Z,60.50
2023-05-09T04:36:11.349Z,61.09
2023-05-09T04:38:46.508Z,60.85
2023-05-09T04:41:18.091Z,60.44
2023-05-09T04:43:49.724Z,59.71
2023-05-09T04:46:23.098Z,59.71
2023-05-09T04:48:58.717Z,58.97
2023-05-09T04:51:30.327Z,58.70
2023-05-09T04:54:01.893Z,59.07
2023-05-09T04:56:33.493Z,58.39
2023-05-09T04:59:05.346Z,57.87
2023-05-09T05:01:36.949Z,57.31
2023-05-09T05:04:08.689Z,58.27
2023-05-09T05:06:40.427Z,59.82
2023-05-09T05:09:12.030Z,59.44
2023-05-09T05:11:57.101Z,58.41
2023-05-09T05:14:30.404Z,58.15
2023-05-09T05:17:01.944Z,58.92
2023-05-09T05:19:34.147Z,58.54
2023-05-09T05:22:06.105Z,58.06
2023-05-09T05:24:37.705Z,58.43
2023-05-09T05:27:09.383Z,57.74
2023-05-09T05:29:40.977Z,57.19
2023-05-09T05:32:12.598Z,57.08
2023-05-09T05:34:44.205Z,56.79
2023-05-09T05:37:15.922Z,55.89
2023-05-09T05:39:47.576Z,56.52
2023-05-09T05:42:19.103Z,56.13
2023-05-09T05:44:50.722Z,56.39
2023-05-09T05:47:22.251Z,55.49
2023-05-09T05:49:54.112Z,54.86
2023-05-09T05:52:28.931Z,56.45
2023-05-09T05:55:00.615Z,55.74
2023-05-09T05:57:32.378Z,57.00
2023-05-09T06:00:07.869Z,57.60
2023-05-09T06:02:41.975Z,57.32
2023-05-09T06:05:16.420Z,56.59
2023-05-09T06:07:48.169Z,55.90
2023-05-09T06:10:21.987Z,55.15
2023-05-09T06:12:53.525Z,55.96
2023-05-09T06:15:25.381Z,58.33
2023-05-09T06:17:57.172Z,56.21
2023-05-09T06:20:29.075Z,55.12
2023-05-09T06:23:00.763Z,54.54
2023-05-09T06:25:32.434Z,54.46
2023-05-09T06:28:04.217Z,54.21
2023-05-09T06:30:35.778Z,53.42
2023-05-09T06:33:07.472Z,52.43
2023-05-09T06:35:39.221Z,50.91
2023-05-09T06:38:10.836Z,50.95
2023-05-09T06:40:42.597Z,49.92
2023-05-09T06:43:14.110Z,49.28
2023-05-09T06:45:48.445Z,48.92
2023-05-09T06:48:20.066Z,49.20
2023-05-09T06:50:51.675Z,47.77
2023-05-09T06:53:23.237Z,50.45
2023-05-09T06:55:55.181Z,50.70
2023-05-09T06:58:27.954Z,49.43
2023-05-09T07:00:59.648Z,55.37
2023-05-09T07:03:31.256Z,51.17
2023-05-09T07:06:02.872Z,48.78
2023-05-09T07:08:34.492Z,48.13
2023-05-09T07:11:06.134Z,47.49
2023-05-09T07:13:37.701Z,45.73
2023-05-09T07:16:09.384Z,47.38
2023-05-09T07:18:41.121Z,47.53
2023-05-09T07:21:12.708Z,48.44
2023-05-09T07:23:44.438Z,47.92
2023-05-09T07:26:16.036Z,46.26
2023-05-09T07:28:47.640Z,46.32
2023-05-09T07:31:19.603Z,48.56
2023-05-09T07:33:51.188Z,47.98
2023-05-09T07:36:22.832Z,46.36
2023-05-09T07:38:54.529Z,47.12
2023-05-09T07:41:26.969Z,47.59
2023-05-09T07:43:58.667Z,47.68
2023-05-09T07:46:30.478Z,49.92
2023-05-09T07:49:02.055Z,51.17
2023-05-09T07:51:33.883Z,55.58
2023-05-09T07:54:06.103Z,56.82
2023-05-09T07:56:37.662Z,56.57
2023-05-09T07:59:09.253Z,54.12
2023-05-09T08:01:40.946Z,55.08
2023-05-09T08:04:12.829Z,55.39
2023-05-09T08:06:44.494Z,53.13
2023-05-09T08:09:16.102Z,57.55
2023-05-09T08:11:47.812Z,53.36
2023-05-09T08:14:19.621Z,53.03
2023-05-09T08:16:51.242Z,47.69
2023-05-09T08:19:26.241Z,45.18
2023-05-09T08:21:57.994Z,43.65
2023-05-09T08:24:29.869Z,44.54
2023-05-09T08:27:03.721Z,42.85
2023-05-09T08:29:35.349Z,42.38
2023-05-09T08:32:07.420Z,37.83
2023-05-09T08:34:39.002Z,32.72
2023-05-09T08:37:12.298Z,35.53
2023-05-09T08:39:46.065Z,35.00
2023-05-09T08:42:20.625Z,35.51
2023-05-09T08:44:52.209Z,37.22
2023-05-09T08:47:25.421Z,36.03
2023-05-09T08:49:57.195Z,38.66
2023-05-09T08:52:33.709Z,36.38
2023-05-09T08:55:08.304Z,34.57
2023-05-09T08:57:40.006Z,35.01
2023-05-09T09:00:17.954Z,39.91
2023-05-09T09:02:53.188Z,35.26
2023-05-09T09:05:40.638Z,30.35
2023-05-09T09:08:14.166Z,35.01
2023-05-09T09:10:47.622Z,38.92
2023-05-09T09:13:21.212Z,38.99
2023-05-09T09:15:57.228Z,38.76
2023-05-09T09:18:30.758Z,36.71
2023-05-09T09:21:15.796Z,38.52
2023-05-09T09:23:49.233Z,47.47
2023-05-09T09:26:21.728Z,43.51
2023-05-09T09:28:54.397Z,41.39
2023-05-09T09:31:30.900Z,41.19
2023-05-09T09:34:03.381Z,43.46
2023-05-09T09:36:36.852Z,43.81
2023-05-09T09:39:09.312Z,38.89
2023-05-09T09:41:42.352Z,38.70
2023-05-09T09:44:20.059Z,33.42
2023-05-09T09:46:55.067Z,33.62
2023-05-09T09:49:27.225Z,34.09
2023-05-09T09:51:59.310Z,32.90
2023-05-09T09:54:32.005Z,36.88
2023-05-09T09:57:04.040Z,39.01
2023-05-09T09:59:35.915Z,36.02
2023-05-09T10:02:12.394Z,38.34
2023-05-09T10:04:44.040Z,45.42
2023-05-09T10:07:15.697Z,39.19
2023-05-09T10:09:50.452Z,36.85
2023-05-09T10:12:23.553Z,39.07
2023-05-09T10:14:55.341Z,35.85
2023-05-09T10:17:28.612Z,32.94
2023-05-09T10:20:04.886Z,33.21
2023-05-09T10:22:40.572Z,31.37
2023-05-09T10:25:21.690Z,29.11
2023-05-09T10:27:56.549Z,28.08
2023-05-09T10:30:34.236Z,34.47
2023-05-09T10:33:16.071Z,33.51
2023-05-09T10:35:50.136Z,30.67
2023-05-09T10:38:22.523Z,29.25
2023-05-09T10:40:55.703Z,28.46
2023-05-09T10:43:28.052Z,28.98
2023-05-09T10:46:00.999Z,31.64
2023-05-09T10:48:33.688Z,29.79
2023-05-09T10:51:06.341Z,35.35
2023-05-09T10:53:47.315Z,31.49
2023-05-09T10:56:24.609Z,37.53
2023-05-09T10:58:56.552Z,33.12
2023-05-09T11:01:37.407Z,35.03
2023-05-09T11:04:15.074Z,35.62
2023-05-09T11:06:52.539Z,39.21
2023-05-09T11:09:41.650Z,37.86
2023-05-09T11:12:15.497Z,38.30
2023-05-09T11:14:49.556Z,34.58
2023-05-09T11:17:21.043Z,35.00
2023-05-09T11:19:52.793Z,33.05
2023-05-09T11:22:28.263Z,33.49
2023-05-09T11:25:08.548Z,31.96
2023-05-09T11:27:46.635Z,35.62
2023-05-09T11:30:20.628Z,37.70
2023-05-09T11:32:55.871Z,35.78
2023-05-09T11:35:28.096Z,36.93
2023-05-09T11:38:06.010Z,32.64
2023-05-09T11:40:39.665Z,32.67
2023-05-09T11:43:13.028Z,31.31
2023-05-09T11:45:46.648Z,35.96
2023-05-09T11:48:22.687Z,36.27
2023-05-09T11:50:54.360Z,34.12
2023-05-09T11:53:25.982Z,32.64
2023-05-09T11:55:57.683Z,31.54
2023-05-09T11:58:29.289Z,35.05
2023-05-09T12:01:01.009Z,30.73
2023-05-09T12:03:33.543Z,35.72
2023-05-09T12:06:05.579Z,32.48
2023-05-09T12:08:37.377Z,30.10
2023-05-09T12:11:10.076Z,29.04
2023-05-09T12:13:49.944Z,27.26
2023-05-09T12:16:21.971Z,28.71
2023-05-09T12:18:53.706Z,32.44
2023-05-09T12:21:25.369Z,31.33
2023-05-09T12:23:57.794Z,33.65
2023-05-09T12:26:29.403Z,31.74
2023-05-09T12:29:01.659Z,33.28
2023-05-09T12:31:33.512Z,30.61
2023-05-09T12:34:05.272Z,31.77
2023-05-09T12:36:37.252Z,31.22
2023-05-09T12:39:12.344Z,29.82
2023-05-09T12:42:01.629Z,29.98
2023-05-09T12:44:34.026Z,28.90
2023-05-09T12:47:05.812Z,33.21
2023-05-09T12:49:37.408Z,32.83
2023-05-09T12:52:19.312Z,31.45
2023-05-09T12:54:53.432Z,29.56
2023-05-09T12:57:31.650Z,27.80
2023-05-09T13:00:06.858Z,27.66
2023-05-09T13:02:42.398Z,32.09
2023-05-09T13:05:21.092Z,31.26
2023-05-09T13:07:57.257Z,29.25
2023-05-09T13:10:29.152Z,34.46
2023-05-09T13:13:00.813Z,37.64
2023-05-09T13:15:33.816Z,37.25
2023-05-09T13:18:05.572Z,33.91
2023-05-09T13:20:37.518Z,32.51
2023-05-09T13:23:09.093Z,32.02
2023-05-09T13:25:40.895Z,33.55
2023-05-09T13:28:12.553Z,31.20
2023-05-09T13:30:45.785Z,35.08
2023-05-09T13:33:25.931Z,36.87
2023-05-09T13:35:58.327Z,34.59
2023-05-09T13:38:32.309Z,34.63
2023-05-09T13:41:04.201Z,32.66
2023-05-09T13:43:37.256Z,32.08
2023-05-09T13:46:08.959Z,32.40
2023-05-09T13:48:41.922Z,32.08
2023-05-09T13:51:13.961Z,30.36
2023-05-09T13:53:45.715Z,33.05
2023-05-09T13:56:17.263Z,31.86
2023-05-09T13:58:48.992Z,31.23
2023-05-09T14:01:20.689Z,32.01
2023-05-09T14:03:52.489Z,31.86
2023-05-09T14:06:24.180Z,34.18
2023-05-09T14:08:57.290Z,32.91
2023-05-09T14:11:28.896Z,36.45
2023-05-09T14:14:00.464Z,34.01
2023-05-09T14:16:32.154Z,31.70
2023-05-09T14:19:03.958Z,30.03
2023-05-09T14:21:35.580Z,30.55
2023-05-09T14:24:07.825Z,32.80
2023-05-09T14:26:39.434Z,35.87
2023-05-09T14:29:11.519Z,35.16
2023-05-09T14:31:43.440Z,36.40
2023-05-09T14:34:15.083Z,34.01
2023-05-09T14:36:46.820Z,36.55
2023-05-09T14:39:19.198Z,34.25
2023-05-09T14:41:52.097Z,34.80
2023-05-09T14:44:25.093Z,33.63
2023-05-09T14:46:56.705Z,33.75
2023-05-09T14:49:28.703Z,32.83
2023-05-09T14:52:00.427Z,33.48
2023-05-09T14:54:32.163Z,35.73
2023-05-09T14:57:05.291Z,32.13
2023-05-09T14:59:37.546Z,32.11
2023-05-09T15:02:09.131Z,32.13
2023-05-09T15:04:43.613Z,33.99
2023-05-09T15:07:15.231Z,34.59
2023-05-09T15:09:47.179Z,33.12
2023-05-09T15:12:18.811Z,33.54
2023-05-09T15:14:53.863Z,34.79
2023-05-09T15:17:25.447Z,34.91
2023-05-09T15:19:57.003Z,35.91
2023-05-09T15:22:28.677Z,36.03
2023-05-09T15:25:00.874Z,35.69
2023-05-09T15:27:32.599Z,35.44
2023-05-09T15:30:06.337Z,35.28
2023-05-09T15:32:41.668Z,35.85
2023-05-09T15:35:14.016Z,36.77
2023-05-09T15:37:51.962Z,36.54
2023-05-09T15:40:23.610Z,37.00
2023-05-09T15:42:55.281Z,36.18
2023-05-09T15:45:26.885Z,36.84
2023-05-09T15:47:59.154Z,36.79
2023-05-09T15:50:33.530Z,36.99
2023-05-09T15:53:05.471Z,36.46
2023-05-09T15:55:40.065Z,36.24
2023-05-09T15:58:16.392Z,36.84
2023-05-09T16:00:48.153Z,36.27
2023-05-09T16:06:06.142Z,37.66
2023-05-09T16:08:37.704Z,37.43
2023-05-09T16:11:10.236Z,38.37
2023-05-09T16:13:41.942Z,37.06
2023-05-09T16:16:13.545Z,38.28
2023-05-09T16:18:45.248Z,36.10
2023-05-09T16:21:22.467Z,37.60
2023-05-09T16:23:54.122Z,38.66
2023-05-09T16:26:26.208Z,38.33
2023-05-09T16:28:58.080Z,38.73
2023-05-09T16:31:32.184Z,39.49
2023-05-09T16:34:04.895Z,39.90
2023-05-09T16:36:37.740Z,40.93
2023-05-09T16:39:09.759Z,41.03
2023-05-09T16:41:41.478Z,41.25
2023-05-09T16:44:13.808Z,41.49
2023-05-09T16:46:47.143Z,41.60
2023-05-09T16:49:18.746Z,41.68
2023-05-09T16:51:50.419Z,40.72
2023-05-09T16:54:23.099Z,41.51
2023-05-09T16:56:54.684Z,42.73
2023-05-09T16:59:26.717Z,42.93
2023-05-09T17:01:58.962Z,43.30
2023-05-09T17:04:30.732Z,45.08
2023-05-09T17:07:02.429Z,46.41
2023-05-09T17:09:34.070Z,48.26
2023-05-09T17:12:06.058Z,53.66
2023-05-09T17:14:37.641Z,57.72
2023-05-09T17:17:09.406Z,60.29
2023-05-09T17:19:43.378Z,61.62
2023-05-09T17:22:14.968Z,63.27
2023-05-09T17:24:46.552Z,65.68
2023-05-09T17:27:18.345Z,64.38
2023-05-09T17:29:50.359Z,64.23
2023-05-09T17:32:22.087Z,63.31
2023-05-09T17:34:54.410Z,67.34
2023-05-09T17:37:26.080Z,64.73
2023-05-09T17:39:58.029Z,64.78
2023-05-09T17:42:29.738Z,64.38
2023-05-09T17:45:01.268Z,64.28
2023-05-09T17:47:33.017Z,63.82
2023-05-09T17:50:07.788Z,63.75
2023-05-09T17:52:39.901Z,64.90
2023-05-09T17:55:12.042Z,68.70
2023-05-09T17:57:43.890Z,66.43
2023-05-09T18:00:16.407Z,66.17
2023-05-09T18:02:51.159Z,66.43
2023-05-09T18:05:24.147Z,67.69
2023-05-09T18:08:01.654Z,68.37
2023-05-09T18:10:33.348Z,68.52
2023-05-09T18:13:05.269Z,69.35
2023-05-09T18:15:38.539Z,68.48
2023-05-09T18:18:12.220Z,67.62
2023-05-09T18:20:47.149Z,68.40
2023-05-09T18:23:18.879Z,69.08
2023-05-09T18:25:54.841Z,69.08
2023-05-09T18:28:27.623Z,67.71
2023-05-09T18:31:00.708Z,67.68
2023-05-09T18:33:38.357Z,66.41
2023-05-09T18:36:11.696Z,66.42
2023-05-09T18:38:44.457Z,69.33
2023-05-09T18:41:17.318Z,67.18
2023-05-09T18:43:48.886Z,68.13
2023-05-09T18:46:21.407Z,68.71
2023-05-09T18:48:53.799Z,68.58
2023-05-09T18:51:25.677Z,67.42
2023-05-09T18:53:58.131Z,67.56
2023-05-09T18:56:29.849Z,68.14
2023-05-09T18:59:01.609Z,66.49
2023-05-09T19:01:33.380Z,69.01
2023-05-09T19:04:05.626Z,71.62
2023-05-09T19:06:37.279Z,71.63
2023-05-09T19:09:08.895Z,69.57
2023-05-09T19:11:40.494Z,68.82
2023-05-09T19:14:12.275Z,68.73
2023-05-09T19:16:43.923Z,68.79
2023-05-09T19:19:42.298Z,67.48
2023-05-09T19:22:14.146Z,67.18
2023-05-09T19:24:45.931Z,68.01
2023-05-09T19:27:18.959Z,67.94
2023-05-09T19:29:52.961Z,66.72
2023-05-09T19:32:24.680Z,66.56
2023-05-09T19:34:56.331Z,66.23
2023-05-09T19:37:27.913Z,65.94
2023-05-09T19:39:59.710Z,67.20
2023-05-09T19:42:35.578Z,67.79
2023-05-09T19:45:07.912Z,66.77
2023-05-09T19:47:39.572Z,66.49
2023-05-09T19:50:11.316Z,66.26
2023-05-09T19:52:43.180Z,66.41
2023-05-09T19:55:14.769Z,67.41
2023-05-09T19:57:47.017Z,67.52
2023-05-09T20:00:19.274Z,67.53
2023-05-09T20:02:51.058Z,68.24
2023-05-09T20:05:22.893Z,66.95
2023-05-09T20:07:57.622Z,65.47
2023-05-09T20:10:30.801Z,64.82
2023-05-09T20:13:04.487Z,64.61
2023-05-09T20:15:36.493Z,64.81
2023-05-09T20:18:08.194Z,64.81
2023-05-09T20:20:39.770Z,64.48
2023-05-09T20:23:11.639Z,65.95
2023-05-09T20:25:46.104Z,67.95
2023-05-09T20:28:21.981Z,66.01
2023-05-09T20:30:53.612Z,65.57
2023-05-09T20:33:25.323Z,66.20
2023-05-09T20:35:57.000Z,68.50
2023-05-09T20:38:28.605Z,69.84
2023-05-09T20:41:00.155Z,68.24
2023-05-09T20:43:31.854Z,67.56
2023-05-09T20:46:03.519Z,69.57
2023-05-09T20:48:35.218Z,72.09
2023-05-09T20:51:09.145Z,71.23
2023-05-09T20:53:40.709Z,70.57
2023-05-09T20:56:12.352Z,67.45
2023-05-09T20:58:43.898Z,69.42
2023-05-09T21:01:15.758Z,69.39
2023-05-09T21:03:47.715Z,69.19
2023-05-09T21:06:19.285Z,67.85
2023-05-09T21:08:50.849Z,67.52
2023-05-09T21:11:22.460Z,68.56
2023-05-09T21:13:54.216Z,66.96
2023-05-09T21:16:25.924Z,66.98
2023-05-09T21:19:02.645Z,65.69
2023-05-09T21:21:34.515Z,66.30
2023-05-09T21:24:09.120Z,69.50
2023-05-09T21:26:41.240Z,67.74
2023-05-09T21:29:12.846Z,67.52
2023-05-09T21:31:44.592Z,68.45
2023-05-09T21:34:16.188Z,68.13
2023-05-09T21:36:47.787Z,69.80
2023-05-09T21:39:19.420Z,69.62
2023-05-09T21:41:50.982Z,70.35
2023-05-09T21:44:24.818Z,68.83
2023-05-09T21:46:56.562Z,68.56
2023-05-09T21:49:31.615Z,70.49
2023-05-09T21:52:03.556Z,70.00
2023-05-09T21:54:35.272Z,67.61
2023-05-09T21:57:06.852Z,68.62
2023-05-09T21:59:43.502Z,68.70
2023-05-09T22:02:15.294Z,66.43
2023-05-09T22:04:47.041Z,67.39
2023-05-09T22:07:18.581Z,66.76
2023-05-09T22:09:50.181Z,70.23
2023-05-09T22:12:23.047Z,69.67
2023-05-09T22:14:56.716Z,70.09
2023-05-09T22:17:28.671Z,68.82
2023-05-09T22:20:00.472Z,67.39
2023-05-09T22:22:33.458Z,66.67
2023-05-09T22:25:05.523Z,67.33
2023-05-09T22:27:43.510Z,66.83
2023-05-09T22:30:15.406Z,66.46
2023-05-09T22:32:47.317Z,67.19
2023-05-09T22:35:19.061Z,66.77
2023-05-09T22:37:50.884Z,68.02
2023-05-09T22:40:22.484Z,67.73
2023-05-09T22:42:54.029Z,67.10
2023-05-09T22:45:25.829Z,66.79
2023-05-09T22:47:57.904Z,66.37
2023-05-09T22:50:29.633Z,66.05
2023-05-09T22:53:01.690Z,67.65
2023-05-09T22:55:33.304Z,66.24
2023-05-09T22:58:04.946Z,65.44
2023-05-09T23:00:36.556Z,67.94
2023-05-09T23:03:08.232Z,68.89
2023-05-09T23:05:39.796Z,67.76
2023-05-09T23:08:11.472Z,71.15
2023-05-09T23:10:43.729Z,68.03
2023-05-09T23:13:15.582Z,68.44
2023-05-09T23:15:48.122Z,68.29
2023-05-09T23:18:21.076Z,70.88
2023-05-09T23:20:52.650Z,67.38
2023-05-09T23:23:26.724Z,67.79
2023-05-09T23:25:58.369Z,70.44
2023-05-09T23:28:29.931Z,71.41
2023-05-09T23:31:01.726Z,73.12
2023-05-09T23:33:33.513Z,69.57
2023-05-09T23:36:05.553Z,70.13
2023-05-09T23:38:37.134Z,69.55
2023-05-09T23:41:08.754Z,72.38
2023-05-09T23:43:40.333Z,72.09
2023-05-09T23:46:11.885Z,72.54
2023-05-09T23:48:43.599Z,70.90
2023-05-09T23:51:15.689Z,71.97
2023-05-09T23:53:49.539Z,71.56
2023-05-09T23:56:21.328Z,74.46
2023-05-09T23:58:52.925Z,72.34
